sensor_id;sensor_type;location;lat;lon;timestamp;P1;durP1;ratioP1;P2;durP2;ratioP2
78622;SDS011;67943;54.412;9.502;2023-10-19T00:03:31;7.47;;;3.70;;
78622;SDS011;67943;54.412;9.502;2023-10-19T00:08:33;8.48;;;4.15;;
78622;SDS011;67943;54.412;9.502;2023-10-19T00:13:41;6.57;;;3.90;;
78622;SDS011;67943;54.412;9.502;2023-10-19T00:18:45;5.57;;;3.38;;
78622;SDS011;67943;54.412;9.502;2023-10-19T00:23:51;6.90;;;3.45;;
78622;SDS011;67943;54.412;9.502;2023-10-19T00:28:56;5.80;;;3.63;;
78622;SDS011;67943;54.412;9.502;2023-10-19T00:33:59;4.97;;;3.38;;
78622;SDS011;67943;54.412;9.502;2023-10-19T00:39:01;5.85;;;3.53;;
78622;SDS011;67943;54.412;9.502;2023-10-19T00:44:16;7.78;;;3.75;;
78622;SDS011;67943;54.412;9.502;2023-10-19T00:49:24;7.88;;;3.80;;
78622;SDS011;67943;54.412;9.502;2023-10-19T00:54:26;5.90;;;3.50;;
78622;SDS011;67943;54.412;9.502;2023-10-19T00:59:33;5.72;;;3.78;;
78622;SDS011;67943;54.412;9.502;2023-10-19T01:04:40;8.88;;;4.00;;
78622;SDS011;67943;54.412;9.502;2023-10-19T01:09:43;7.30;;;4.15;;
78622;SDS011;67943;54.412;9.502;2023-10-19T01:14:59;8.35;;;4.10;;
78622;SDS011;67943;54.412;9.502;2023-10-19T01:20:05;8.23;;;4.18;;
78622;SDS011;67943;54.412;9.502;2023-10-19T01:25:15;7.43;;;4.40;;
78622;SDS011;67943;54.412;9.502;2023-10-19T01:30:24;9.48;;;4.75;;
78622;SDS011;67943;54.412;9.502;2023-10-19T01:35:27;8.88;;;4.90;;
78622;SDS011;67943;54.412;9.502;2023-10-19T01:40:50;8.65;;;4.90;;
78622;SDS011;67943;54.412;9.502;2023-10-19T01:45:55;10.88;;;5.25;;
78622;SDS011;67943;54.412;9.502;2023-10-19T01:50:56;7.22;;;4.78;;
78622;SDS011;67943;54.412;9.502;2023-10-19T01:55:59;8.82;;;4.43;;
78622;SDS011;67943;54.412;9.502;2023-10-19T02:01:00;8.93;;;4.75;;
78622;SDS011;67943;54.412;9.502;2023-10-19T02:06:08;12.65;;;4.60;;
78622;SDS011;67943;54.412;9.502;2023-10-19T02:11:20;9.10;;;4.38;;
78622;SDS011;67943;54.412;9.502;2023-10-19T02:16:23;11.15;;;4.53;;
78622;SDS011;67943;54.412;9.502;2023-10-19T02:21:25;9.93;;;4.32;;
78622;SDS011;67943;54.412;9.502;2023-10-19T02:26:32;10.18;;;4.85;;
78622;SDS011;67943;54.412;9.502;2023-10-19T02:31:34;8.50;;;4.63;;
78622;SDS011;67943;54.412;9.502;2023-10-19T02:36:38;12.25;;;4.82;;
78622;SDS011;67943;54.412;9.502;2023-10-19T02:41:42;9.10;;;4.70;;
78622;SDS011;67943;54.412;9.502;2023-10-19T02:46:45;7.95;;;4.45;;
78622;SDS011;67943;54.412;9.502;2023-10-19T02:51:48;11.30;;;4.85;;
78622;SDS011;67943;54.412;9.502;2023-10-19T02:56:53;10.65;;;5.40;;
78622;SDS011;67943;54.412;9.502;2023-10-19T03:01:58;8.15;;;4.97;;
78622;SDS011;67943;54.412;9.502;2023-10-19T03:07:07;10.00;;;5.55;;
78622;SDS011;67943;54.412;9.502;2023-10-19T03:12:11;11.60;;;5.70;;
78622;SDS011;67943;54.412;9.502;2023-10-19T03:17:14;11.30;;;5.65;;
78622;SDS011;67943;54.412;9.502;2023-10-19T03:22:15;10.48;;;5.88;;
78622;SDS011;67943;54.412;9.502;2023-10-19T03:27:18;9.57;;;5.90;;
78622;SDS011;67943;54.412;9.502;2023-10-19T03:32:21;10.38;;;5.68;;
78622;SDS011;67943;54.412;9.502;2023-10-19T03:37:26;14.35;;;6.50;;
78622;SDS011;67943;54.412;9.502;2023-10-19T03:42:31;10.35;;;6.20;;
78622;SDS011;67943;54.412;9.502;2023-10-19T03:47:33;14.07;;;6.85;;
78622;SDS011;67943;54.412;9.502;2023-10-19T03:52:35;10.80;;;5.93;;
78622;SDS011;67943;54.412;9.502;2023-10-19T03:57:39;13.52;;;6.95;;
78622;SDS011;67943;54.412;9.502;2023-10-19T04:02:41;12.93;;;6.88;;
78622;SDS011;67943;54.412;9.502;2023-10-19T04:07:42;10.85;;;6.75;;
78622;SDS011;67943;54.412;9.502;2023-10-19T04:12:45;13.80;;;7.43;;
78622;SDS011;67943;54.412;9.502;2023-10-19T04:17:47;16.75;;;8.30;;
78622;SDS011;67943;54.412;9.502;2023-10-19T04:22:49;14.63;;;8.07;;
78622;SDS011;67943;54.412;9.502;2023-10-19T04:27:52;15.20;;;8.02;;
78622;SDS011;67943;54.412;9.502;2023-10-19T04:32:57;16.83;;;7.50;;
78622;SDS011;67943;54.412;9.502;2023-10-19T04:37:58;16.95;;;7.65;;
78622;SDS011;67943;54.412;9.502;2023-10-19T04:43:03;13.45;;;7.70;;
78622;SDS011;67943;54.412;9.502;2023-10-19T04:48:05;14.02;;;7.82;;
78622;SDS011;67943;54.412;9.502;2023-10-19T04:53:07;12.48;;;7.38;;
78622;SDS011;67943;54.412;9.502;2023-10-19T04:58:10;14.57;;;7.38;;
78622;SDS011;67943;54.412;9.502;2023-10-19T05:03:11;12.93;;;8.13;;
78622;SDS011;67943;54.412;9.502;2023-10-19T05:08:18;13.55;;;7.63;;
78622;SDS011;67943;54.412;9.502;2023-10-19T05:13:25;13.02;;;7.22;;
78622;SDS011;67943;54.412;9.502;2023-10-19T05:18:27;12.75;;;7.10;;
78622;SDS011;67943;54.412;9.502;2023-10-19T05:23:28;11.85;;;7.05;;
78622;SDS011;67943;54.412;9.502;2023-10-19T05:28:31;13.10;;;7.18;;
78622;SDS011;67943;54.412;9.502;2023-10-19T05:33:33;16.05;;;7.38;;
78622;SDS011;67943;54.412;9.502;2023-10-19T05:38:35;16.17;;;8.18;;
78622;SDS011;67943;54.412;9.502;2023-10-19T05:43:38;14.32;;;7.80;;
78622;SDS011;67943;54.412;9.502;2023-10-19T05:48:40;18.35;;;7.80;;
78622;SDS011;67943;54.412;9.502;2023-10-19T05:53:42;15.30;;;7.57;;
78622;SDS011;67943;54.412;9.502;2023-10-19T05:58:45;15.95;;;8.10;;
78622;SDS011;67943;54.412;9.502;2023-10-19T06:03:50;11.70;;;7.65;;
78622;SDS011;67943;54.412;9.502;2023-10-19T06:08:52;11.52;;;7.18;;
78622;SDS011;67943;54.412;9.502;2023-10-19T06:13:56;11.98;;;7.50;;
78622;SDS011;67943;54.412;9.502;2023-10-19T06:18:57;10.43;;;6.60;;
78622;SDS011;67943;54.412;9.502;2023-10-19T06:23:59;10.98;;;6.78;;
78622;SDS011;67943;54.412;9.502;2023-10-19T06:29:01;12.65;;;7.10;;
78622;SDS011;67943;54.412;9.502;2023-10-19T06:34:04;12.00;;;6.90;;
78622;SDS011;67943;54.412;9.502;2023-10-19T06:39:05;12.70;;;6.88;;
78622;SDS011;67943;54.412;9.502;2023-10-19T06:44:09;10.43;;;6.35;;
78622;SDS011;67943;54.412;9.502;2023-10-19T06:49:11;15.73;;;7.15;;
78622;SDS011;67943;54.412;9.502;2023-10-19T06:54:12;11.23;;;5.80;;
78622;SDS011;67943;54.412;9.502;2023-10-19T06:59:15;19.30;;;6.45;;
78622;SDS011;67943;54.412;9.502;2023-10-19T07:04:17;12.40;;;6.35;;
78622;SDS011;67943;54.412;9.502;2023-10-19T07:09:18;10.25;;;5.68;;
78622;SDS011;67943;54.412;9.502;2023-10-19T07:14:22;13.20;;;5.57;;
78622;SDS011;67943;54.412;9.502;2023-10-19T07:19:24;14.10;;;6.32;;
78622;SDS011;67943;54.412;9.502;2023-10-19T07:24:25;9.68;;;5.63;;
78622;SDS011;67943;54.412;9.502;2023-10-19T07:29:28;12.18;;;6.00;;
78622;SDS011;67943;54.412;9.502;2023-10-19T07:34:31;11.70;;;6.07;;
78622;SDS011;67943;54.412;9.502;2023-10-19T07:39:33;8.20;;;5.28;;
78622;SDS011;67943;54.412;9.502;2023-10-19T07:44:36;11.38;;;5.50;;
78622;SDS011;67943;54.412;9.502;2023-10-19T07:49:38;11.07;;;5.63;;
78622;SDS011;67943;54.412;9.502;2023-10-19T07:54:40;11.85;;;6.18;;
78622;SDS011;67943;54.412;9.502;2023-10-19T07:59:43;11.02;;;6.28;;
78622;SDS011;67943;54.412;9.502;2023-10-19T08:04:47;10.63;;;5.78;;
78622;SDS011;67943;54.412;9.502;2023-10-19T08:09:49;9.70;;;5.85;;
78622;SDS011;67943;54.412;9.502;2023-10-19T08:14:52;14.73;;;6.13;;
78622;SDS011;67943;54.412;9.502;2023-10-19T08:19:55;12.40;;;5.75;;
78622;SDS011;67943;54.412;9.502;2023-10-19T08:24:57;10.57;;;5.43;;
78622;SDS011;67943;54.412;9.502;2023-10-19T08:30:00;10.10;;;5.78;;
78622;SDS011;67943;54.412;9.502;2023-10-19T08:35:04;9.80;;;5.03;;
78622;SDS011;67943;54.412;9.502;2023-10-19T08:40:07;9.10;;;5.35;;
78622;SDS011;67943;54.412;9.502;2023-10-19T08:45:16;10.73;;;5.18;;
78622;SDS011;67943;54.412;9.502;2023-10-19T08:50:17;10.18;;;5.72;;
78622;SDS011;67943;54.412;9.502;2023-10-19T08:55:23;9.85;;;6.00;;
78622;SDS011;67943;54.412;9.502;2023-10-19T09:00:27;10.57;;;6.15;;
78622;SDS011;67943;54.412;9.502;2023-10-19T09:05:37;12.85;;;6.22;;
78622;SDS011;67943;54.412;9.502;2023-10-19T09:10:40;10.60;;;6.07;;
78622;SDS011;67943;54.412;9.502;2023-10-19T09:15:44;9.07;;;5.20;;
78622;SDS011;67943;54.412;9.502;2023-10-19T09:20:47;9.32;;;5.90;;
78622;SDS011;67943;54.412;9.502;2023-10-19T09:26:02;11.48;;;5.13;;
78622;SDS011;67943;54.412;9.502;2023-10-19T09:31:06;14.20;;;5.50;;
78622;SDS011;67943;54.412;9.502;2023-10-19T09:36:10;11.20;;;5.40;;
78622;SDS011;67943;54.412;9.502;2023-10-19T09:41:14;9.95;;;5.47;;
78622;SDS011;67943;54.412;9.502;2023-10-19T09:46:21;11.52;;;5.63;;
78622;SDS011;67943;54.412;9.502;2023-10-19T09:51:24;12.20;;;5.57;;
78622;SDS011;67943;54.412;9.502;2023-10-19T09:56:27;16.00;;;5.93;;
78622;SDS011;67943;54.412;9.502;2023-10-19T10:07:12;9.82;;;5.40;;
78622;SDS011;67943;54.412;9.502;2023-10-19T10:12:17;13.20;;;5.72;;
78622;SDS011;67943;54.412;9.502;2023-10-19T10:17:21;14.68;;;5.75;;
78622;SDS011;67943;54.412;9.502;2023-10-19T10:22:23;13.85;;;6.82;;
78622;SDS011;67943;54.412;9.502;2023-10-19T10:27:24;15.80;;;7.22;;
78622;SDS011;67943;54.412;9.502;2023-10-19T10:32:46;13.55;;;6.97;;
78622;SDS011;67943;54.412;9.502;2023-10-19T10:37:53;13.27;;;8.18;;
78622;SDS011;67943;54.412;9.502;2023-10-19T10:43:04;13.45;;;7.78;;
78622;SDS011;67943;54.412;9.502;2023-10-19T10:48:12;15.20;;;7.93;;
78622;SDS011;67943;54.412;9.502;2023-10-19T10:53:14;12.35;;;7.68;;
78622;SDS011;67943;54.412;9.502;2023-10-19T10:58:16;13.73;;;7.63;;
78622;SDS011;67943;54.412;9.502;2023-10-19T11:03:20;16.20;;;7.68;;
78622;SDS011;67943;54.412;9.502;2023-10-19T11:08:23;17.90;;;8.32;;
78622;SDS011;67943;54.412;9.502;2023-10-19T11:13:25;16.40;;;8.20;;
78622;SDS011;67943;54.412;9.502;2023-10-19T11:18:30;17.27;;;8.18;;
78622;SDS011;67943;54.412;9.502;2023-10-19T11:23:39;20.92;;;9.02;;
78622;SDS011;67943;54.412;9.502;2023-10-19T11:28:42;15.95;;;8.25;;
78622;SDS011;67943;54.412;9.502;2023-10-19T11:33:48;18.77;;;8.80;;
78622;SDS011;67943;54.412;9.502;2023-10-19T11:38:52;14.18;;;7.95;;
78622;SDS011;67943;54.412;9.502;2023-10-19T11:43:54;15.45;;;8.88;;
78622;SDS011;67943;54.412;9.502;2023-10-19T11:48:57;16.05;;;8.23;;
78622;SDS011;67943;54.412;9.502;2023-10-19T11:53:59;19.58;;;9.23;;
78622;SDS011;67943;54.412;9.502;2023-10-19T11:59:01;14.05;;;7.50;;
78622;SDS011;67943;54.412;9.502;2023-10-19T12:04:04;18.33;;;8.07;;
78622;SDS011;67943;54.412;9.502;2023-10-19T12:09:06;13.93;;;8.45;;
78622;SDS011;67943;54.412;9.502;2023-10-19T12:14:15;13.93;;;8.35;;
78622;SDS011;67943;54.412;9.502;2023-10-19T12:19:18;13.95;;;8.00;;
78622;SDS011;67943;54.412;9.502;2023-10-19T12:24:19;14.75;;;7.75;;
78622;SDS011;67943;54.412;9.502;2023-10-19T12:29:21;14.98;;;7.28;;
78622;SDS011;67943;54.412;9.502;2023-10-19T12:34:24;13.63;;;6.90;;
78622;SDS011;67943;54.412;9.502;2023-10-19T12:39:29;17.73;;;7.60;;
78622;SDS011;67943;54.412;9.502;2023-10-19T12:44:43;15.00;;;7.53;;
78622;SDS011;67943;54.412;9.502;2023-10-19T12:49:46;14.52;;;7.47;;
78622;SDS011;67943;54.412;9.502;2023-10-19T12:54:48;18.13;;;7.88;;
78622;SDS011;67943;54.412;9.502;2023-10-19T12:59:51;16.75;;;7.88;;
78622;SDS011;67943;54.412;9.502;2023-10-19T13:04:54;17.33;;;8.27;;
78622;SDS011;67943;54.412;9.502;2023-10-19T13:09:57;16.42;;;8.52;;
78622;SDS011;67943;54.412;9.502;2023-10-19T13:14:59;17.85;;;8.75;;
78622;SDS011;67943;54.412;9.502;2023-10-19T13:20:02;19.45;;;8.90;;
78622;SDS011;67943;54.412;9.502;2023-10-19T13:25:16;12.57;;;7.88;;
78622;SDS011;67943;54.412;9.502;2023-10-19T13:30:18;15.90;;;8.35;;
78622;SDS011;67943;54.412;9.502;2023-10-19T13:35:20;19.30;;;8.18;;
78622;SDS011;67943;54.412;9.502;2023-10-19T13:40:22;15.02;;;8.73;;
78622;SDS011;67943;54.412;9.502;2023-10-19T13:45:24;15.45;;;7.90;;
78622;SDS011;67943;54.412;9.502;2023-10-19T13:50:28;15.02;;;7.30;;
78622;SDS011;67943;54.412;9.502;2023-10-19T13:55:30;13.38;;;7.18;;
78622;SDS011;67943;54.412;9.502;2023-10-19T14:00:33;17.42;;;7.00;;
78622;SDS011;67943;54.412;9.502;2023-10-19T14:05:42;13.00;;;6.70;;
78622;SDS011;67943;54.412;9.502;2023-10-19T14:10:47;15.35;;;6.35;;
78622;SDS011;67943;54.412;9.502;2023-10-19T14:15:52;14.77;;;5.75;;
78622;SDS011;67943;54.412;9.502;2023-10-19T14:20:55;13.35;;;5.97;;
78622;SDS011;67943;54.412;9.502;2023-10-19T14:25:56;14.10;;;6.22;;
78622;SDS011;67943;54.412;9.502;2023-10-19T14:30:58;13.25;;;6.30;;
78622;SDS011;67943;54.412;9.502;2023-10-19T14:36:09;14.24;;;6.40;;
78622;SDS011;67943;54.412;9.502;2023-10-19T14:41:11;14.95;;;6.43;;
78622;SDS011;67943;54.412;9.502;2023-10-19T14:46:13;16.40;;;6.55;;
78622;SDS011;67943;54.412;9.502;2023-10-19T14:51:15;11.63;;;6.88;;
78622;SDS011;67943;54.412;9.502;2023-10-19T14:56:17;13.45;;;6.03;;
78622;SDS011;67943;54.412;9.502;2023-10-19T15:01:21;13.02;;;6.72;;
78622;SDS011;67943;54.412;9.502;2023-10-19T15:06:27;14.77;;;6.57;;
78622;SDS011;67943;54.412;9.502;2023-10-19T15:11:29;13.05;;;6.15;;
78622;SDS011;67943;54.412;9.502;2023-10-19T15:16:30;14.18;;;7.40;;
78622;SDS011;67943;54.412;9.502;2023-10-19T15:21:33;16.63;;;6.68;;
78622;SDS011;67943;54.412;9.502;2023-10-19T15:26:35;12.80;;;6.53;;
78622;SDS011;67943;54.412;9.502;2023-10-19T15:31:37;14.27;;;8.15;;
78622;SDS011;67943;54.412;9.502;2023-10-19T15:36:40;14.20;;;8.23;;
78622;SDS011;67943;54.412;9.502;2023-10-19T15:41:47;15.98;;;8.48;;
78622;SDS011;67943;54.412;9.502;2023-10-19T15:46:48;13.75;;;7.50;;
78622;SDS011;67943;54.412;9.502;2023-10-19T15:51:54;17.25;;;8.40;;
78622;SDS011;67943;54.412;9.502;2023-10-19T15:56:55;13.50;;;7.72;;
78622;SDS011;67943;54.412;9.502;2023-10-19T16:01:56;16.98;;;7.95;;
78622;SDS011;67943;54.412;9.502;2023-10-19T16:07:00;17.48;;;7.75;;
78622;SDS011;67943;54.412;9.502;2023-10-19T16:12:01;12.25;;;6.65;;
78622;SDS011;67943;54.412;9.502;2023-10-19T16:17:03;12.93;;;7.13;;
78622;SDS011;67943;54.412;9.502;2023-10-19T16:22:06;11.80;;;6.57;;
78622;SDS011;67943;54.412;9.502;2023-10-19T16:27:07;15.57;;;6.78;;
78622;SDS011;67943;54.412;9.502;2023-10-19T16:32:09;12.93;;;6.80;;
78622;SDS011;67943;54.412;9.502;2023-10-19T16:37:12;12.38;;;6.88;;
78622;SDS011;67943;54.412;9.502;2023-10-19T16:42:13;14.65;;;6.70;;
78622;SDS011;67943;54.412;9.502;2023-10-19T16:47:15;11.07;;;6.65;;
78622;SDS011;67943;54.412;9.502;2023-10-19T16:52:18;14.50;;;6.78;;
78622;SDS011;67943;54.412;9.502;2023-10-19T16:57:19;11.85;;;6.95;;
78622;SDS011;67943;54.412;9.502;2023-10-19T17:02:22;13.60;;;6.95;;
78622;SDS011;67943;54.412;9.502;2023-10-19T17:07:26;15.10;;;6.80;;
78622;SDS011;67943;54.412;9.502;2023-10-19T17:12:28;15.05;;;7.60;;
78622;SDS011;67943;54.412;9.502;2023-10-19T17:17:33;17.33;;;7.68;;
78622;SDS011;67943;54.412;9.502;2023-10-19T17:22:36;14.57;;;7.47;;
78622;SDS011;67943;54.412;9.502;2023-10-19T17:27:37;13.43;;;6.90;;
78622;SDS011;67943;54.412;9.502;2023-10-19T17:32:39;14.55;;;6.70;;
78622;SDS011;67943;54.412;9.502;2023-10-19T17:37:42;16.25;;;7.40;;
78622;SDS011;67943;54.412;9.502;2023-10-19T17:42:43;14.27;;;7.40;;
78622;SDS011;67943;54.412;9.502;2023-10-19T17:47:45;15.00;;;7.28;;
78622;SDS011;67943;54.412;9.502;2023-10-19T17:52:48;13.43;;;7.43;;
78622;SDS011;67943;54.412;9.502;2023-10-19T17:57:50;16.92;;;7.55;;
78622;SDS011;67943;54.412;9.502;2023-10-19T18:02:53;19.88;;;8.57;;
78622;SDS011;67943;54.412;9.502;2023-10-19T18:07:56;16.05;;;8.07;;
78622;SDS011;67943;54.412;9.502;2023-10-19T18:12:57;15.35;;;8.35;;
78622;SDS011;67943;54.412;9.502;2023-10-19T18:18:00;16.05;;;8.10;;
78622;SDS011;67943;54.412;9.502;2023-10-19T18:23:03;13.50;;;7.25;;
78622;SDS011;67943;54.412;9.502;2023-10-19T18:28:05;14.40;;;8.07;;
78622;SDS011;67943;54.412;9.502;2023-10-19T18:33:08;16.10;;;7.75;;
78622;SDS011;67943;54.412;9.502;2023-10-19T18:38:11;15.52;;;7.88;;
78622;SDS011;67943;54.412;9.502;2023-10-19T18:43:13;15.40;;;8.07;;
78622;SDS011;67943;54.412;9.502;2023-10-19T18:48:14;14.60;;;8.85;;
78622;SDS011;67943;54.412;9.502;2023-10-19T18:53:18;14.75;;;7.75;;
78622;SDS011;67943;54.412;9.502;2023-10-19T18:58:20;15.98;;;8.77;;
78622;SDS011;67943;54.412;9.502;2023-10-19T19:03:24;15.15;;;8.23;;
78622;SDS011;67943;54.412;9.502;2023-10-19T19:08:29;14.07;;;8.55;;
78622;SDS011;67943;54.412;9.502;2023-10-19T19:13:31;13.68;;;8.20;;
78622;SDS011;67943;54.412;9.502;2023-10-19T19:18:34;15.93;;;8.32;;
78622;SDS011;67943;54.412;9.502;2023-10-19T19:23:37;13.10;;;8.25;;
78622;SDS011;67943;54.412;9.502;2023-10-19T19:28:40;15.65;;;9.23;;
78622;SDS011;67943;54.412;9.502;2023-10-19T19:33:44;16.10;;;9.10;;
78622;SDS011;67943;54.412;9.502;2023-10-19T19:38:47;17.92;;;9.43;;
78622;SDS011;67943;54.412;9.502;2023-10-19T19:43:49;16.60;;;9.15;;
78622;SDS011;67943;54.412;9.502;2023-10-19T19:48:52;12.10;;;7.85;;
78622;SDS011;67943;54.412;9.502;2023-10-19T19:53:55;16.52;;;9.27;;
78622;SDS011;67943;54.412;9.502;2023-10-19T19:58:56;15.15;;;8.68;;
78622;SDS011;67943;54.412;9.502;2023-10-19T20:03:59;12.60;;;8.52;;
78622;SDS011;67943;54.412;9.502;2023-10-19T20:09:04;17.00;;;9.05;;
78622;SDS011;67943;54.412;9.502;2023-10-19T20:14:16;14.88;;;8.10;;
78622;SDS011;67943;54.412;9.502;2023-10-19T20:19:18;11.50;;;8.45;;
78622;SDS011;67943;54.412;9.502;2023-10-19T20:24:21;13.82;;;8.13;;
78622;SDS011;67943;54.412;9.502;2023-10-19T20:29:24;15.95;;;9.25;;
78622;SDS011;67943;54.412;9.502;2023-10-19T20:34:25;16.50;;;9.07;;
78622;SDS011;67943;54.412;9.502;2023-10-19T20:39:28;16.65;;;8.90;;
78622;SDS011;67943;54.412;9.502;2023-10-19T20:44:30;13.15;;;8.60;;
78622;SDS011;67943;54.412;9.502;2023-10-19T20:49:40;16.83;;;8.38;;
78622;SDS011;67943;54.412;9.502;2023-10-19T20:54:43;19.42;;;10.07;;
78622;SDS011;67943;54.412;9.502;2023-10-19T20:59:45;13.13;;;8.73;;
78622;SDS011;67943;54.412;9.502;2023-10-19T21:04:46;16.40;;;8.93;;
78622;SDS011;67943;54.412;9.502;2023-10-19T21:09:49;16.05;;;9.05;;
78622;SDS011;67943;54.412;9.502;2023-10-19T21:14:51;15.90;;;10.38;;
78622;SDS011;67943;54.412;9.502;2023-10-19T21:19:52;17.98;;;9.55;;
78622;SDS011;67943;54.412;9.502;2023-10-19T21:24:55;16.40;;;9.10;;
78622;SDS011;67943;54.412;9.502;2023-10-19T21:29:57;16.00;;;9.15;;
78622;SDS011;67943;54.412;9.502;2023-10-19T21:34:58;15.43;;;8.63;;
78622;SDS011;67943;54.412;9.502;2023-10-19T21:40:02;14.45;;;9.35;;
78622;SDS011;67943;54.412;9.502;2023-10-19T21:45:05;17.15;;;9.80;;
78622;SDS011;67943;54.412;9.502;2023-10-19T21:50:08;14.77;;;8.82;;
78622;SDS011;67943;54.412;9.502;2023-10-19T21:55:12;14.13;;;9.18;;
78622;SDS011;67943;54.412;9.502;2023-10-19T22:00:14;14.75;;;9.45;;
78622;SDS011;67943;54.412;9.502;2023-10-19T22:05:25;14.75;;;9.25;;
78622;SDS011;67943;54.412;9.502;2023-10-19T22:10:28;16.90;;;9.55;;
78622;SDS011;67943;54.412;9.502;2023-10-19T22:15:30;14.35;;;8.50;;
78622;SDS011;67943;54.412;9.502;2023-10-19T22:20:31;17.42;;;8.63;;
78622;SDS011;67943;54.412;9.502;2023-10-19T22:25:34;13.45;;;8.40;;
78622;SDS011;67943;54.412;9.502;2023-10-19T22:30:36;12.73;;;8.32;;
78622;SDS011;67943;54.412;9.502;2023-10-19T22:35:38;11.93;;;7.47;;
78622;SDS011;67943;54.412;9.502;2023-10-19T22:40:42;13.45;;;7.28;;
78622;SDS011;67943;54.412;9.502;2023-10-19T22:45:45;10.32;;;6.55;;
78622;SDS011;67943;54.412;9.502;2023-10-19T22:50:46;11.15;;;6.30;;
78622;SDS011;67943;54.412;9.502;2023-10-19T22:55:49;12.23;;;6.70;;
78622;SDS011;67943;54.412;9.502;2023-10-19T23:00:50;9.00;;;6.93;;
78622;SDS011;67943;54.412;9.502;2023-10-19T23:05:52;10.98;;;5.97;;
78622;SDS011;67943;54.412;9.502;2023-10-19T23:10:55;10.88;;;6.32;;
78622;SDS011;67943;54.412;9.502;2023-10-19T23:15:57;10.68;;;6.25;;
78622;SDS011;67943;54.412;9.502;2023-10-19T23:21:00;10.43;;;5.55;;
78622;SDS011;67943;54.412;9.502;2023-10-19T23:26:03;8.55;;;6.15;;
78622;SDS011;67943;54.412;9.502;2023-10-19T23:31:04;7.75;;;5.72;;
78622;SDS011;67943;54.412;9.502;2023-10-19T23:36:07;9.45;;;5.10;;
78622;SDS011;67943;54.412;9.502;2023-10-19T23:41:10;8.23;;;5.18;;
78622;SDS011;67943;54.412;9.502;2023-10-19T23:46:11;12.23;;;5.15;;
78622;SDS011;67943;54.412;9.502;2023-10-19T23:51:13;8.77;;;4.38;;
78622;SDS011;67943;54.412;9.502;2023-10-19T23:56:16;8.50;;;4.60;;
